Combienbar, Australia
Current Conditions -  °F | °C
As of 1:00 AM on Tuesday 27 Jan 2015 (Local Time) from YMER Reporting Station
Overcast Overcast  
Wind Chill: 61°   Ceiling: 3800
Heat Index: 61°   Visibility: 6mi
Dew Point: 52°   Wind: 5mph
Humidity: 72%   Direction: 270°W
Pressure: 30.03"   Gusts: NA
Location:  37.42°S, 149.01°E
Report Text: YMER 261400Z AUTO 27004KT 9999 // BKN038 OVC042 16/11 Q1017
Loading
Personal Weather Stations






























Interactive Weather Map New forecast layout! Learn more

10-Day Weather Forecast

Advertisements
Track Severe Weather on mobile